Time;durP1;ratioP1;P1;durP2;ratioP2;P2;SDS_P1;SDS_P2;PMS_P1;PMS_P2;Temp;Humidity;BMP_temperature;BMP_pressure;BME280_temperature;BME280_humidity;BME280_pressure;Samples;Min_cycle;Max_cycle;Signal;HPM_P1;HPM_P2
2021/06/02 00:00:26;;;;;;;6.63;2.63;;;16.20;81.90;;;;;;6241518;22;20004;-71
2021/06/02 00:02:54;;;;;;;5.63;3.08;;;16.20;81.90;;;;;;6244200;22;20007;-72
2021/06/02 00:05:22;;;;;;;5.47;3.55;;;16.20;81.90;;;;;;6242409;22;20291;-72
2021/06/02 00:07:50;;;;;;;3.92;2.90;;;16.10;81.90;;;;;;6242627;22;20662;-71
2021/06/02 00:10:18;;;;;;;5.35;2.83;;;16.10;81.90;;;;;;6242697;22;20008;-71
2021/06/02 00:12:45;;;;;;;4.13;2.65;;;16.10;82.00;;;;;;6242398;22;20008;-72
2021/06/02 00:15:13;;;;;;;3.92;2.20;;;16.10;82.00;;;;;;6243629;22;20004;-71
2021/06/02 00:17:40;;;;;;;5.35;2.83;;;16.10;82.10;;;;;;6242789;22;19996;-71
2021/06/02 00:20:09;;;;;;;5.82;2.67;;;16.10;82.10;;;;;;6243257;22;20447;-71
2021/06/02 00:22:35;;;;;;;4.38;2.40;;;16.10;82.10;;;;;;6242168;22;20443;-70
2021/06/02 00:25:03;;;;;;;2.75;2.45;;;16.10;82.20;;;;;;6243423;22;20003;-71
2021/06/02 00:27:30;;;;;;;5.18;2.42;;;16.10;82.20;;;;;;6242597;22;20079;-71
2021/06/02 02:26:59;;;;;;;3.25;1.75;;;15.40;87.10;;;;;;5056995;28;20487;-71
2021/06/02 02:30:04;;;;;;;5.38;2.42;;;15.60;87.60;;;;;;5045157;28;20033;-69
2021/06/02 02:33:00;;;;;;;2.58;1.55;;;15.70;87.20;;;;;;5045345;28;20042;-71
2021/06/02 02:35:42;;;;;;;1.98;1.23;;;15.80;86.70;;;;;;5041690;28;20026;-69
2021/06/02 02:38:31;;;;;;;4.70;2.00;;;15.80;86.30;;;;;;5039922;28;20539;-72
2021/06/02 02:41:41;;;;;;;6.68;2.38;;;15.80;85.90;;;;;;5039661;28;20048;-69
2021/06/02 02:44:19;;;;;;;10.40;3.17;;;15.80;85.70;;;;;;5042018;28;20042;-73
2021/06/02 02:46:55;;;;;;;5.85;2.80;;;15.90;85.60;;;;;;5040231;28;20064;-69
2021/06/02 02:49:43;;;;;;;2.40;2.20;;;15.90;85.50;;;;;;5043729;28;20064;-72
2021/06/02 02:52:32;;;;;;;4.75;2.63;;;15.90;85.40;;;;;;5037422;28;20038;-70
2021/06/02 02:55:07;;;;;;;11.95;2.40;;;15.90;85.30;;;;;;5038707;28;20048;-70
2021/06/02 02:57:39;;;;;;;3.63;2.15;;;15.90;85.20;;;;;;5038225;28;20018;-69
2021/06/02 03:00:18;;;;;;;6.43;2.35;;;15.90;85.20;;;;;;5040432;28;20105;-72
2021/06/02 03:03:00;;;;;;;3.85;2.20;;;15.90;85.10;;;;;;5029098;28;20061;-69
2021/06/02 03:05:31;;;;;;;3.67;2.03;;;15.90;85.00;;;;;;5042784;28;20013;-70
2021/06/02 03:08:23;;;;;;;2.17;1.88;;;15.90;84.90;;;;;;5036990;28;20056;-69
2021/06/02 03:11:04;;;;;;;4.53;1.40;;;15.90;84.90;;;;;;5039866;28;20026;-69
2021/06/02 03:14:01;;;;;;;3.47;1.35;;;15.90;84.80;;;;;;5042611;28;20379;-70
2021/06/02 03:16:35;;;;;;;2.22;1.30;;;15.90;84.80;;;;;;5028904;28;20040;-69
2021/06/02 03:19:17;;;;;;;2.70;1.42;;;15.80;84.80;;;;;;5043259;28;20014;-73
2021/06/02 03:22:07;;;;;;;2.05;1.50;;;15.80;84.80;;;;;;5044160;28;20528;-73
2021/06/02 03:24:58;;;;;;;3.38;1.83;;;15.80;84.80;;;;;;5041702;28;20480;-69
2021/06/02 03:27:58;;;;;;;2.75;1.52;;;15.80;84.80;;;;;;5049182;28;20121;-73
2021/06/02 03:30:31;;;;;;;4.03;1.45;;;15.80;84.90;;;;;;5050381;28;20048;-71
2021/06/02 03:33:25;;;;;;;3.95;1.83;;;15.80;85.00;;;;;;5049288;28;20483;-73
2021/06/02 03:35:59;;;;;;;2.30;1.25;;;15.80;85.00;;;;;;5048779;28;20028;-72
2021/06/02 03:39:07;;;;;;;3.90;1.33;;;15.80;85.00;;;;;;5048839;28;20021;-74
2021/06/02 03:42:02;;;;;;;5.43;1.63;;;15.80;85.10;;;;;;5047533;28;20028;-70
2021/06/02 03:44:54;;;;;;;6.32;2.08;;;15.80;85.00;;;;;;5049673;28;20032;-68
2021/06/02 03:47:43;;;;;;;3.25;2.03;;;15.80;85.00;;;;;;5046574;28;20416;-70
2021/06/02 03:50:25;;;;;;;2.72;1.40;;;15.80;84.90;;;;;;5051175;28;20537;-70
2021/06/02 03:53:07;;;;;;;2.15;1.60;;;15.80;84.90;;;;;;5047834;28;20584;-69
2021/06/02 03:55:45;;;;;;;2.17;1.50;;;15.80;84.90;;;;;;5050060;28;20440;-68
2021/06/02 03:58:30;;;;;;;3.95;2.53;;;15.80;84.90;;;;;;5049505;28;20039;-69
2021/06/02 04:01:28;;;;;;;3.38;1.70;;;15.80;84.90;;;;;;5047030;28;20056;-72
2021/06/02 04:04:12;;;;;;;2.75;1.83;;;15.80;85.00;;;;;;5044818;28;20373;-76
2021/06/02 04:07:06;;;;;;;4.43;1.95;;;15.70;84.90;;;;;;5044949;28;20029;-72
2021/06/02 04:09:54;;;;;;;4.28;2.30;;;15.80;85.00;;;;;;5050410;28;20874;-72
2021/06/02 04:13:04;;;;;;;5.47;2.30;;;15.80;85.00;;;;;;5038755;28;20056;-76
2021/06/02 04:15:36;;;;;;;3.65;2.60;;;15.80;84.90;;;;;;5031932;28;20491;-80
2021/06/02 04:18:03;;;;;;;9.95;6.72;;;15.80;84.90;;;;;;5049283;28;20013;-72
2021/06/02 04:20:30;;;;;;;10.90;7.75;;;15.70;84.90;;;;;;5050016;28;20017;-69
2021/06/02 04:23:02;;;;;;;10.93;5.82;;;15.70;84.90;;;;;;5051591;28;20049;-68
2021/06/02 04:25:29;;;;;;;8.68;5.10;;;15.70;84.80;;;;;;5039075;28;20040;-71
2021/06/02 04:27:56;;;;;;;8.50;4.68;;;15.70;84.80;;;;;;5045418;28;20384;-71
2021/06/02 04:30:25;;;;;;;6.20;4.47;;;15.70;84.70;;;;;;5043653;28;20439;-71
2021/06/02 04:32:59;;;;;;;5.93;3.90;;;15.70;85.30;;;;;;5039750;28;20043;-74
2021/06/02 04:35:26;;;;;;;7.22;3.15;;;15.70;84.60;;;;;;5044935;28;20495;-73
2021/06/02 04:37:57;;;;;;;5.22;4.28;;;15.70;84.60;;;;;;5043906;28;20025;-70
2021/06/02 04:40:24;;;;;;;5.88;4.30;;;15.70;84.60;;;;;;5046229;28;20029;-72
2021/06/02 04:42:55;;;;;;;9.43;4.47;;;15.70;84.50;;;;;;5045930;28;20017;-76
2021/06/02 04:45:31;;;;;;;4.95;3.92;;;15.70;84.50;;;;;;5049645;28;20716;-71
2021/06/02 04:48:01;;;;;;;6.82;3.50;;;15.60;84.40;;;;;;5046500;28;20018;-73
2021/06/02 04:50:44;;;;;;;6.25;4.03;;;15.60;84.30;;;;;;5048194;28;20032;-72
2021/06/02 04:53:52;;;;;;;5.88;3.78;;;15.60;84.40;;;;;;5044065;28;20495;-71
2021/06/02 04:56:43;;;;;;;4.50;3.65;;;15.60;84.30;;;;;;5027437;28;20147;-73
2021/06/02 04:59:13;;;;;;;7.25;3.55;;;15.60;84.30;;;;;;5042024;28;20049;-71
2021/06/02 05:02:00;;;;;;;6.07;3.17;;;15.60;84.20;;;;;;5042822;28;20616;-71
2021/06/02 05:05:15;;;;;;;5.68;3.22;;;15.60;84.20;;;;;;5040215;28;20029;-74
2021/06/02 05:08:12;;;;;;;5.55;3.63;;;15.60;84.20;;;;;;5044540;28;20041;-70
2021/06/02 05:11:06;;;;;;;5.05;3.30;;;15.60;84.10;;;;;;5044413;28;20418;-70
2021/06/02 05:14:10;;;;;;;4.95;2.97;;;15.60;84.40;;;;;;5048401;28;20028;-72
2021/06/02 05:17:14;;;;;;;7.43;3.38;;;15.60;84.10;;;;;;5038387;28;20034;-70
2021/06/02 05:20:21;;;;;;;5.18;2.55;;;15.50;84.00;;;;;;5044856;28;20025;-71
2021/06/02 05:23:00;;;;;;;5.22;3.30;;;15.50;84.10;;;;;;5047023;28;20056;-70
2021/06/02 05:25:54;;;;;;;4.55;3.15;;;15.50;84.20;;;;;;5044452;28;20087;-71
2021/06/02 05:28:42;;;;;;;6.70;3.53;;;15.50;84.20;;;;;;5039865;28;20021;-71
2021/06/02 05:31:27;;;;;;;5.63;4.20;;;15.50;84.10;;;;;;5038365;28;20025;-72
2021/06/02 05:34:15;;;;;;;7.30;4.50;;;15.50;84.20;;;;;;5046076;28;20028;-73
2021/06/02 05:37:30;;;;;;;7.95;5.90;;;15.50;84.20;;;;;;5049381;28;20033;-72
2021/06/02 05:40:23;;;;;;;13.43;5.45;;;15.50;84.20;;;;;;5019316;28;20135;-72
2021/06/02 05:43:10;;;;;;;8.35;5.70;;;15.50;84.30;;;;;;5017083;28;20047;-71
2021/06/02 05:46:05;;;;;;;9.55;5.93;;;15.50;84.30;;;;;;5045742;28;20109;-70
2021/06/02 05:49:04;;;;;;;10.13;6.65;;;15.50;84.20;;;;;;5047481;28;20029;-70
2021/06/02 05:51:58;;;;;;;7.57;4.90;;;15.50;84.20;;;;;;5045193;28;20033;-71
2021/06/02 05:54:27;;;;;;;11.00;6.07;;;15.50;84.30;;;;;;5044730;28;20034;-72
2021/06/02 05:57:11;;;;;;;8.63;5.82;;;15.50;84.30;;;;;;5043739;28;20099;-72
2021/06/02 05:59:41;;;;;;;9.45;5.68;;;15.50;84.30;;;;;;5045044;28;20536;-69
2021/06/02 06:02:28;;;;;;;7.97;5.05;;;15.50;84.30;;;;;;5046454;28;20506;-69
2021/06/02 06:05:32;;;;;;;7.82;4.20;;;15.50;84.30;;;;;;5047381;28;20521;-70
2021/06/02 06:08:36;;;;;;;7.28;5.60;;;15.50;84.20;;;;;;5041026;28;20021;-69
2021/06/02 06:11:40;;;;;;;5.82;4.65;;;15.50;84.10;;;;;;5043394;28;20387;-72
2021/06/02 06:14:57;;;;;;;4.68;3.80;;;15.50;84.20;;;;;;5046505;28;20037;-73
2021/06/02 06:18:02;;;;;;;10.40;6.18;;;15.50;84.10;;;;;;5043236;28;20480;-71
2021/06/02 06:20:43;;;;;;;8.43;6.50;;;15.40;84.10;;;;;;5036764;28;20036;-70
2021/06/02 06:23:48;;;;;;;6.57;5.47;;;15.50;84.20;;;;;;5044037;28;20056;-69
2021/06/02 06:26:33;;;;;;;9.02;5.80;;;15.40;84.10;;;;;;5041654;28;20518;-69
2021/06/02 06:29:16;;;;;;;8.73;6.10;;;15.50;84.20;;;;;;5043148;28;20033;-69
2021/06/02 06:31:47;;;;;;;9.50;5.95;;;15.50;84.30;;;;;;5046668;28;20419;-68
2021/06/02 06:34:21;;;;;;;7.50;5.57;;;15.50;84.30;;;;;;5043175;28;20042;-69
2021/06/02 06:36:52;;;;;;;5.88;5.30;;;15.50;84.40;;;;;;5044258;28;20025;-68
2021/06/02 06:39:55;;;;;;;6.28;5.47;;;15.40;84.40;;;;;;5044335;28;20474;-68
2021/06/02 06:42:35;;;;;;;8.85;5.63;;;15.40;84.50;;;;;;5040797;28;20056;-70
2021/06/02 06:45:10;;;;;;;8.80;5.47;;;15.50;84.60;;;;;;5044218;28;20057;-71
2021/06/02 06:47:39;;;;;;;5.20;4.70;;;15.40;84.70;;;;;;5043147;28;20028;-69
2021/06/02 06:50:10;;;;;;;6.40;5.13;;;15.50;84.90;;;;;;5044511;28;20494;-70
2021/06/02 06:52:38;;;;;;;6.55;4.88;;;15.50;85.00;;;;;;5046353;28;20499;-68
2021/06/02 06:55:06;;;;;;;7.28;4.53;;;15.40;85.00;;;;;;5046657;28;20033;-69
2021/06/02 06:57:38;;;;;;;12.77;5.47;;;15.50;85.10;;;;;;5047802;28;20375;-70
2021/06/02 07:00:09;;;;;;;9.27;5.00;;;15.50;85.30;;;;;;5043480;28;20041;-70
2021/06/02 07:02:40;;;;;;;8.98;5.25;;;15.50;85.90;;;;;;5045302;28;20028;-73
2021/06/02 07:05:08;;;;;;;7.22;4.28;;;15.50;85.50;;;;;;5048062;28;20546;-69
2021/06/02 07:07:35;;;;;;;6.45;4.57;;;15.50;85.60;;;;;;5050810;28;20033;-71
2021/06/02 07:10:06;;;;;;;9.27;4.93;;;15.50;85.70;;;;;;5043017;28;20044;-70
2021/06/02 07:12:32;;;;;;;5.97;4.68;;;15.60;85.90;;;;;;5049789;28;20106;-71
2021/06/02 07:15:02;;;;;;;8.32;5.45;;;15.60;86.00;;;;;;5052425;28;20041;-70
2021/06/02 07:17:30;;;;;;;7.20;5.22;;;15.60;86.10;;;;;;5050300;28;20475;-71
2021/06/02 07:20:04;;;;;;;9.25;4.70;;;15.60;86.20;;;;;;5049209;28;20098;-69
2021/06/02 07:22:33;;;;;;;6.95;4.07;;;15.60;86.30;;;;;;5050952;28;20434;-69
2021/06/02 07:25:01;;;;;;;8.02;5.32;;;15.60;86.40;;;;;;5048288;28;20041;-71
2021/06/02 07:27:29;;;;;;;6.00;3.63;;;15.60;86.40;;;;;;5042780;28;20503;-70
2021/06/02 07:29:55;;;;;;;5.82;5.00;;;15.70;86.50;;;;;;5049170;28;20009;-69
2021/06/02 07:32:21;;;;;;;4.13;3.15;;;15.70;86.60;;;;;;5050919;28;20024;-70
2021/06/02 07:34:48;;;;;;;4.00;3.10;;;15.70;86.60;;;;;;5050368;28;20043;-71
2021/06/02 07:37:17;;;;;;;3.92;2.15;;;15.70;86.60;;;;;;5040126;28;20112;-69
2021/06/02 07:39:44;;;;;;;4.38;2.65;;;15.80;86.70;;;;;;5048956;28;20476;-70
2021/06/02 07:42:10;;;;;;;3.05;2.80;;;15.80;86.70;;;;;;5044207;28;20072;-71
2021/06/02 07:44:37;;;;;;;2.75;1.42;;;15.80;87.30;;;;;;5047063;28;20036;-71
2021/06/02 07:47:03;;;;;;;3.08;1.83;;;15.80;86.70;;;;;;5050571;28;20036;-71
2021/06/02 07:49:30;;;;;;;1.92;1.50;;;15.90;86.70;;;;;;5048074;28;20112;-69
2021/06/02 07:52:00;;;;;;;0.98;0.88;;;15.90;86.50;;;;;;5046926;28;20020;-69
2021/06/02 07:54:27;;;;;;;2.08;1.10;;;15.90;86.50;;;;;;5049199;28;20034;-69
2021/06/02 07:56:54;;;;;;;4.28;1.30;;;15.90;86.40;;;;;;5043821;28;20751;-69
2021/06/02 07:59:21;;;;;;;4.05;1.77;;;16.00;86.30;;;;;;5050798;28;20501;-69
2021/06/02 08:01:48;;;;;;;2.58;1.40;;;16.00;86.30;;;;;;5047844;28;20079;-71
2021/06/02 08:04:14;;;;;;;1.80;0.90;;;16.00;86.10;;;;;;5048566;28;20028;-69
2021/06/02 08:06:41;;;;;;;2.70;1.05;;;16.10;86.10;;;;;;5047931;28;20033;-69
2021/06/02 08:09:08;;;;;;;3.53;1.27;;;16.10;86.00;;;;;;5050532;28;20021;-69
2021/06/02 08:11:34;;;;;;;4.50;1.25;;;16.10;85.80;;;;;;5045048;28;20044;-70
2021/06/02 08:14:01;;;;;;;3.10;1.50;;;16.10;85.70;;;;;;5045541;28;20082;-69
2021/06/02 08:16:27;;;;;;;2.33;1.25;;;16.20;85.60;;;;;;5048537;28;20024;-69
2021/06/02 08:18:54;;;;;;;2.50;1.25;;;16.20;85.30;;;;;;5036580;28;20423;-71
2021/06/02 08:21:20;;;;;;;3.47;1.05;;;16.20;85.20;;;;;;5051100;28;20500;-70
2021/06/02 08:23:47;;;;;;;1.30;0.93;;;16.20;85.00;;;;;;5049101;28;20064;-72
2021/06/02 08:26:13;;;;;;;1.75;0.90;;;16.30;84.90;;;;;;5044946;28;20037;-71
2021/06/02 08:28:40;;;;;;;2.08;0.85;;;16.30;84.60;;;;;;5044986;28;20021;-69
2021/06/02 08:31:06;;;;;;;0.80;0.80;;;16.40;84.50;;;;;;5046085;28;20072;-70
2021/06/02 08:33:32;;;;;;;2.30;0.88;;;16.30;84.20;;;;;;5047806;28;20025;-69
2021/06/02 08:36:00;;;;;;;2.45;0.90;;;16.40;84.10;;;;;;5043610;28;20021;-69
2021/06/02 08:38:27;;;;;;;4.40;1.67;;;16.40;83.80;;;;;;5042299;28;20028;-69
2021/06/02 08:40:53;;;;;;;1.67;0.85;;;16.50;83.70;;;;;;5047488;28;20029;-69
2021/06/02 08:43:21;;;;;;;4.00;1.58;;;16.50;83.40;;;;;;5050792;28;20021;-70
2021/06/02 08:45:50;;;;;;;7.93;1.33;;;16.60;83.20;;;;;;5045306;28;20483;-69
2021/06/02 08:48:17;;;;;;;4.68;1.17;;;16.60;83.00;;;;;;5042036;28;20074;-70
2021/06/02 08:50:43;;;;;;;4.35;1.75;;;16.60;82.90;;;;;;5045063;28;20037;-69
2021/06/02 08:53:14;;;;;;;3.72;1.77;;;16.70;82.80;;;;;;5045824;28;20021;-70
2021/06/02 08:55:44;;;;;;;3.80;1.48;;;16.70;82.70;;;;;;5048775;28;20151;-71
2021/06/02 08:58:18;;;;;;;4.35;1.42;;;16.70;82.60;;;;;;5048927;28;20028;-71
2021/06/02 09:00:45;;;;;;;7.93;1.85;;;16.80;82.60;;;;;;5039256;28;20104;-69
2021/06/02 09:03:12;;;;;;;3.38;1.40;;;16.80;82.40;;;;;;5048901;28;20009;-69
2021/06/02 09:05:39;;;;;;;5.95;1.48;;;16.90;82.30;;;;;;5049440;28;20379;-70
2021/06/02 09:08:08;;;;;;;1.55;1.15;;;16.90;82.30;;;;;;5047214;28;20695;-71
2021/06/02 09:10:39;;;;;;;10.35;1.95;;;17.00;82.10;;;;;;5047871;28;20041;-69
2021/06/02 09:13:18;;;;;;;4.70;1.58;;;17.00;81.50;;;;;;5042553;28;20037;-69
2021/06/02 09:15:47;;;;;;;2.13;1.20;;;17.00;81.00;;;;;;5045954;28;20041;-69
2021/06/02 09:18:16;;;;;;;4.70;1.23;;;17.10;80.50;;;;;;5043966;28;20056;-69
2021/06/02 09:20:49;;;;;;;5.45;1.73;;;17.10;80.20;;;;;;5046752;28;20033;-69
2021/06/02 09:23:45;;;;;;;6.18;1.50;;;17.20;80.10;;;;;;5048756;28;20021;-69
2021/06/02 09:26:12;;;;;;;7.32;2.05;;;17.20;79.50;;;;;;5042518;28;20052;-70
2021/06/02 09:29:13;;;;;;;3.25;1.08;;;17.30;79.20;;;;;;5047595;28;20025;-69
2021/06/02 09:31:41;;;;;;;4.70;1.52;;;17.20;78.70;;;;;;5041049;28;20488;-69
2021/06/02 09:34:24;;;;;;;6.80;1.50;;;17.30;78.50;;;;;;5038334;28;20047;-69
2021/06/02 09:37:06;;;;;;;4.88;1.65;;;17.40;78.70;;;;;;5040103;28;20029;-68
2021/06/02 09:39:44;;;;;;;3.58;1.85;;;17.40;77.60;;;;;;5044394;28;20692;-69
2021/06/02 09:42:27;;;;;;;5.85;1.50;;;17.40;77.40;;;;;;5038353;28;20124;-69
2021/06/02 09:45:04;;;;;;;6.88;1.75;;;17.50;77.30;;;;;;5040807;28;20037;-69
2021/06/02 09:47:48;;;;;;;6.38;1.83;;;17.50;77.10;;;;;;5049877;28;20063;-69
2021/06/02 09:50:19;;;;;;;8.38;2.35;;;17.60;76.70;;;;;;5046978;28;20403;-70
2021/06/02 09:52:48;;;;;;;5.15;1.75;;;17.70;76.60;;;;;;5042188;28;20117;-70
2021/06/02 09:55:38;;;;;;;7.72;1.75;;;17.70;76.20;;;;;;5047996;28;20078;-70
2021/06/02 09:58:08;;;;;;;6.85;2.00;;;17.80;75.90;;;;;;5044460;28;20026;-69
2021/06/02 10:00:37;;;;;;;10.18;2.28;;;17.80;75.40;;;;;;5039660;28;20029;-69
2021/06/02 10:03:11;;;;;;;3.47;1.40;;;17.90;75.10;;;;;;5045417;28;20059;-68
2021/06/02 10:05:43;;;;;;;6.15;2.45;;;18.00;75.10;;;;;;5046055;28;20016;-70
2021/06/02 10:08:11;;;;;;;5.20;2.22;;;18.00;74.50;;;;;;5047292;28;20407;-69
2021/06/02 10:10:41;;;;;;;3.95;1.50;;;18.10;74.40;;;;;;5046254;28;20052;-69
2021/06/02 10:13:13;;;;;;;4.82;1.38;;;18.20;74.10;;;;;;5046145;28;20028;-70
2021/06/02 10:15:53;;;;;;;5.40;1.65;;;18.20;73.60;;;;;;5044663;28;20043;-70
2021/06/02 10:18:30;;;;;;;3.83;1.50;;;18.20;73.20;;;;;;5040898;28;20013;-69
2021/06/02 10:21:08;;;;;;;6.70;1.98;;;18.20;73.00;;;;;;5045048;28;20061;-72
2021/06/02 10:23:39;;;;;;;4.78;1.23;;;18.20;72.70;;;;;;5044950;28;20020;-72
2021/06/02 10:26:07;;;;;;;3.10;1.58;;;18.20;72.80;;;;;;5038679;28;20045;-72
2021/06/02 10:28:34;;;;;;;6.20;1.27;;;18.20;72.60;;;;;;5044990;28;20379;-73
2021/06/02 10:31:03;;;;;;;3.42;1.20;;;18.10;72.80;;;;;;5042835;28;20439;-70
2021/06/02 10:33:30;;;;;;;4.93;2.90;;;18.10;73.00;;;;;;5043454;28;20534;-73
2021/06/02 10:35:59;;;;;;;5.32;1.90;;;18.10;73.30;;;;;;5042658;28;20032;-73
2021/06/02 10:38:30;;;;;;;4.72;1.70;;;18.10;73.40;;;;;;5050678;28;20025;-73
2021/06/02 10:40:57;;;;;;;5.93;1.83;;;18.10;73.60;;;;;;5049893;28;20044;-72
2021/06/02 10:43:29;;;;;;;4.80;1.50;;;18.10;73.60;;;;;;5049759;28;20024;-73
2021/06/02 10:46:02;;;;;;;5.45;1.75;;;18.10;73.60;;;;;;5047245;28;20020;-72
2021/06/02 10:48:41;;;;;;;5.03;1.90;;;18.20;73.70;;;;;;5046622;28;20059;-71
2021/06/02 10:51:36;;;;;;;4.03;1.45;;;18.20;73.60;;;;;;5045994;28;20029;-73
2021/06/02 10:54:29;;;;;;;3.05;1.48;;;18.20;73.40;;;;;;5033229;28;20081;-73
2021/06/02 10:56:58;;;;;;;3.60;1.27;;;18.30;73.30;;;;;;5049639;28;20036;-71
2021/06/02 10:59:38;;;;;;;6.88;1.92;;;18.40;73.40;;;;;;5050815;28;20472;-71
2021/06/02 11:02:13;;;;;;;7.50;1.35;;;18.40;73.40;;;;;;5049711;28;20027;-72
2021/06/02 11:04:41;;;;;;;7.15;2.38;;;18.50;73.00;;;;;;5045229;28;20394;-72
2021/06/02 11:07:21;;;;;;;3.97;1.27;;;18.50;72.60;;;;;;5049982;28;20048;-72
2021/06/02 11:10:14;;;;;;;4.72;1.17;;;18.50;72.10;;;;;;5051761;28;20036;-72
2021/06/02 11:12:47;;;;;;;3.97;1.40;;;18.60;72.20;;;;;;5041816;28;20052;-72
2021/06/02 11:15:35;;;;;;;4.18;1.33;;;18.70;72.20;;;;;;5048760;28;20041;-71
2021/06/02 11:18:16;;;;;;;5.07;2.28;;;18.70;72.00;;;;;;5043913;28;20075;-72
2021/06/02 11:20:51;;;;;;;3.90;1.10;;;18.80;72.00;;;;;;5046047;28;20089;-71
2021/06/02 11:23:20;;;;;;;5.28;1.30;;;18.80;71.90;;;;;;5048702;28;20399;-73
2021/06/02 11:25:48;;;;;;;4.90;1.25;;;18.90;71.80;;;;;;5042956;28;20045;-73
2021/06/02 11:28:47;;;;;;;8.25;1.45;;;19.00;71.50;;;;;;5047991;28;20027;-72
2021/06/02 11:31:27;;;;;;;5.72;1.13;;;19.00;71.20;;;;;;5043972;28;20036;-72
2021/06/02 11:34:27;;;;;;;7.70;1.70;;;19.10;71.50;;;;;;5050801;28;20021;-73
2021/06/02 11:37:08;;;;;;;7.18;1.85;;;19.20;70.50;;;;;;5046140;28;20479;-71
2021/06/02 11:39:37;;;;;;;5.40;1.38;;;19.20;70.10;;;;;;5049280;28;20036;-71
2021/06/02 11:42:05;;;;;;;5.88;1.48;;;19.30;70.20;;;;;;5048786;28;20387;-72
2021/06/02 11:44:33;;;;;;;7.05;1.70;;;19.30;70.10;;;;;;5053434;28;20024;-72
2021/06/02 11:47:01;;;;;;;4.35;1.45;;;19.40;69.60;;;;;;5045578;28;20028;-71
2021/06/02 11:49:29;;;;;;;6.15;1.70;;;19.40;69.60;;;;;;5046924;28;20116;-71
2021/06/02 11:52:04;;;;;;;4.18;1.30;;;19.40;69.20;;;;;;5049180;28;20476;-73
2021/06/02 11:54:49;;;;;;;;;;;19.50;69.20;;;;;;5046104;28;20037;-73
2021/06/02 11:57:25;;;;;;;3.10;1.30;;;19.60;69.00;;;;;;5049687;28;20371;-72
2021/06/02 11:59:53;;;;;;;6.07;1.20;;;19.50;68.90;;;;;;5047061;28;20547;-73
2021/06/02 12:02:20;;;;;;;6.72;1.67;;;19.60;68.80;;;;;;5045719;28;20076;-72
2021/06/02 12:04:46;;;;;;;5.38;1.50;;;19.70;68.50;;;;;;5041789;28;20033;-73
2021/06/02 12:07:29;;;;;;;5.38;2.47;;;19.70;68.40;;;;;;5046590;28;20049;-73
2021/06/02 12:09:57;;;;;;;7.40;2.63;;;19.70;68.10;;;;;;5046275;28;20518;-72
2021/06/02 12:12:25;;;;;;;7.25;1.50;;;19.70;67.80;;;;;;5042822;28;20018;-72
2021/06/02 12:14:53;;;;;;;6.78;1.48;;;19.80;67.40;;;;;;5044273;28;20095;-72
2021/06/02 12:17:26;;;;;;;6.57;1.27;;;19.80;67.40;;;;;;5037929;28;20013;-72
2021/06/02 12:19:52;;;;;;;4.43;1.48;;;19.80;67.00;;;;;;5049218;28;20025;-72
2021/06/02 12:22:20;;;;;;;4.15;1.15;;;19.80;67.10;;;;;;5051737;28;20075;-72
2021/06/02 12:25:17;;;;;;;3.90;1.27;;;19.80;66.60;;;;;;5045289;28;20080;-71
2021/06/02 12:27:53;;;;;;;5.10;1.48;;;19.80;66.60;;;;;;5042006;28;20111;-71
2021/06/02 12:30:22;;;;;;;8.40;1.60;;;19.80;66.60;;;;;;5046703;28;20415;-72
2021/06/02 12:33:12;;;;;;;4.80;1.95;;;19.80;66.60;;;;;;5050107;28;20013;-71
2021/06/02 12:35:45;;;;;;;7.40;2.35;;;19.80;66.80;;;;;;5045204;28;20135;-71
2021/06/02 12:38:32;;;;;;;12.50;2.78;;;19.90;67.00;;;;;;5041338;28;20091;-72
2021/06/02 12:41:00;;;;;;;3.42;1.23;;;19.90;66.90;;;;;;5041124;28;20121;-72
2021/06/02 12:43:32;;;;;;;5.50;1.45;;;19.90;67.00;;;;;;5049620;28;20061;-73
2021/06/02 12:46:09;;;;;;;4.03;2.28;;;20.00;66.90;;;;;;5044883;28;20337;-74
2021/06/02 12:48:36;;;;;;;7.53;1.15;;;20.00;67.10;;;;;;5043719;28;20104;-72
2021/06/02 12:51:03;;;;;;;3.13;1.30;;;20.10;67.10;;;;;;5045267;28;20017;-72
2021/06/02 12:53:41;;;;;;;6.00;1.65;;;20.10;67.20;;;;;;5048397;28;20029;-71
2021/06/02 12:56:10;;;;;;;4.80;1.75;;;20.10;67.10;;;;;;5044434;28;20125;-72
2021/06/02 12:58:37;;;;;;;4.88;0.98;;;20.10;67.10;;;;;;5044681;28;20029;-72
2021/06/02 13:01:11;;;;;;;3.53;1.30;;;20.20;67.20;;;;;;5040374;28;20021;-72
2021/06/02 13:03:47;;;;;;;5.32;1.90;;;20.20;67.20;;;;;;5046273;28;20025;-71
2021/06/02 13:06:18;;;;;;;3.20;1.27;;;20.20;67.20;;;;;;5050445;28;20040;-72
2021/06/02 13:08:47;;;;;;;4.07;1.65;;;20.20;67.20;;;;;;5046081;28;20518;-72
2021/06/02 13:11:28;;;;;;;7.72;1.67;;;20.20;67.20;;;;;;5047603;28;20051;-71
2021/06/02 13:14:00;;;;;;;4.13;1.50;;;20.20;67.20;;;;;;5045309;28;20040;-71
2021/06/02 13:16:28;;;;;;;2.83;1.30;;;20.00;67.30;;;;;;5043643;28;20499;-70
2021/06/02 13:19:06;;;;;;;3.05;1.33;;;20.00;67.50;;;;;;5050683;28;20021;-71
2021/06/02 13:21:35;;;;;;;3.47;1.40;;;20.00;67.90;;;;;;5047288;28;20033;-73
2021/06/02 13:24:17;;;;;;;6.72;1.15;;;19.90;68.20;;;;;;5043178;28;20480;-70
2021/06/02 13:26:53;;;;;;;3.85;1.30;;;19.90;68.60;;;;;;5043471;28;20495;-71
2021/06/02 13:29:21;;;;;;;6.35;1.50;;;19.90;68.70;;;;;;5046427;28;20031;-72
2021/06/02 13:31:52;;;;;;;8.65;1.63;;;19.90;69.00;;;;;;5042323;28;20029;-68
2021/06/02 13:34:38;;;;;;;5.07;1.30;;;19.90;69.10;;;;;;5047442;28;20460;-69
2021/06/02 13:37:17;;;;;;;4.43;1.70;;;19.80;69.20;;;;;;5047231;28;20021;-70
2021/06/02 13:40:08;;;;;;;6.10;1.65;;;19.80;69.30;;;;;;5044062;28;20056;-71
2021/06/02 13:42:35;;;;;;;4.80;1.77;;;19.70;69.50;;;;;;5038323;28;20037;-71
2021/06/02 13:45:02;;;;;;;5.97;1.48;;;19.70;69.60;;;;;;5047576;28;20021;-72
2021/06/02 13:47:35;;;;;;;6.10;1.63;;;19.70;69.90;;;;;;5039870;28;20025;-71
2021/06/02 13:50:15;;;;;;;3.67;1.40;;;19.70;70.20;;;;;;5037995;28;20516;-72
2021/06/02 13:52:42;;;;;;;6.85;1.42;;;19.70;70.30;;;;;;5046949;28;20116;-70
2021/06/02 13:55:10;;;;;;;8.48;1.95;;;19.70;70.40;;;;;;5046763;28;20069;-72
2021/06/02 13:57:43;;;;;;;11.52;2.53;;;19.60;70.50;;;;;;5043708;28;20020;-73
2021/06/02 14:00:11;;;;;;;4.57;1.50;;;19.60;70.60;;;;;;5042548;28;20021;-70
2021/06/02 14:02:41;;;;;;;4.80;1.58;;;19.60;70.60;;;;;;5042404;28;20021;-72
2021/06/02 14:05:09;;;;;;;6.07;1.48;;;19.60;70.70;;;;;;5041695;28;20025;-69
2021/06/02 14:07:35;;;;;;;5.80;1.63;;;19.60;70.80;;;;;;5042222;28;20017;-71
2021/06/02 14:10:03;;;;;;;4.50;2.05;;;19.60;70.90;;;;;;5043548;28;20017;-72
2021/06/02 14:12:30;;;;;;;5.85;1.80;;;19.60;71.00;;;;;;5045433;28;20021;-69
2021/06/02 14:14:57;;;;;;;4.05;1.25;;;19.50;71.10;;;;;;5045253;28;20033;-69
2021/06/02 14:17:24;;;;;;;9.23;1.67;;;19.50;71.00;;;;;;5046952;28;20537;-74
2021/06/02 14:19:50;;;;;;;3.70;1.38;;;19.50;71.10;;;;;;5045205;28;20020;-70
2021/06/02 14:22:18;;;;;;;9.98;1.55;;;19.50;71.10;;;;;;5048577;28;20151;-75
2021/06/02 14:24:45;;;;;;;6.30;1.65;;;19.50;71.10;;;;;;5045960;28;20095;-69
2021/06/02 14:27:12;;;;;;;7.68;3.45;;;19.50;71.20;;;;;;5044531;28;20017;-69
2021/06/02 14:29:38;;;;;;;9.52;3.95;;;19.50;71.40;;;;;;5045888;28;20021;-73
2021/06/02 14:32:09;;;;;;;5.22;2.08;;;19.50;71.60;;;;;;5047827;28;20371;-73
2021/06/02 14:34:37;;;;;;;3.72;1.60;;;19.50;71.80;;;;;;5040608;28;20045;-76
2021/06/02 14:37:04;;;;;;;5.70;2.08;;;19.50;72.00;;;;;;5045750;28;20104;-71
2021/06/02 14:39:30;;;;;;;11.05;2.00;;;19.50;72.10;;;;;;5044487;28;20488;-73
2021/06/02 14:41:57;;;;;;;4.68;1.85;;;19.40;72.30;;;;;;5049397;28;20471;-67
2021/06/02 14:44:24;;;;;;;6.60;4.40;;;19.40;72.40;;;;;;5048297;28;20033;-68
2021/06/02 14:46:50;;;;;;;9.32;2.70;;;19.40;72.70;;;;;;5042842;28;20059;-69
2021/06/02 14:49:17;;;;;;;6.60;2.80;;;19.30;73.00;;;;;;5044634;28;20021;-76
2021/06/02 14:51:43;;;;;;;6.47;2.33;;;19.30;73.20;;;;;;5047181;28;20440;-73
2021/06/02 14:54:10;;;;;;;7.13;1.95;;;19.30;73.40;;;;;;5038200;28;20037;-75
2021/06/02 14:56:37;;;;;;;5.00;1.98;;;19.20;73.70;;;;;;5046216;28;20024;-72
2021/06/02 14:59:04;;;;;;;7.43;2.28;;;19.20;73.90;;;;;;5040524;28;20068;-68
2021/06/02 15:01:31;;;;;;;5.20;1.60;;;19.10;74.00;;;;;;5045229;28;20050;-70
2021/06/02 15:04:01;;;;;;;6.47;2.50;;;19.10;74.30;;;;;;5039218;28;20025;-68
2021/06/02 15:06:28;;;;;;;6.20;2.22;;;19.10;74.40;;;;;;5041134;28;20039;-75
2021/06/02 15:08:54;;;;;;;5.90;2.42;;;19.10;74.60;;;;;;5040135;28;20025;-68
2021/06/02 15:11:21;;;;;;;6.88;2.33;;;19.00;74.70;;;;;;5044280;28;20075;-72
2021/06/02 15:13:48;;;;;;;3.85;2.42;;;19.00;74.80;;;;;;5044807;28;20391;-73
2021/06/02 15:16:19;;;;;;;5.93;3.65;;;19.00;74.90;;;;;;5037274;28;20071;-70
2021/06/02 15:18:46;;;;;;;7.75;4.07;;;18.90;74.90;;;;;;5041288;28;20033;-70
2021/06/02 15:21:13;;;;;;;5.95;3.30;;;18.90;75.10;;;;;;5045631;28;20021;-71
2021/06/02 15:23:40;;;;;;;6.07;2.67;;;18.90;75.20;;;;;;5048207;28;20056;-70
2021/06/02 15:26:07;;;;;;;7.28;2.75;;;18.90;75.30;;;;;;5047228;28;20415;-71